Time;durP1;ratioP1;P1;durP2;ratioP2;P2;SDS_P1;SDS_P2;PMS_P1;PMS_P2;Temp;Humidity;BMP_temperature;BMP_pressure;BME280_temperature;BME280_humidity;BME280_pressure;Samples;Min_cycle;Max_cycle;Signal;HPM_P1;HPM_P2
2022/09/16 00:00:45;;;;;;;6.65;2.70;;;17.40;99.90;;;;;;5005846;28;20046;-84
2022/09/16 00:03:12;;;;;;;6.18;2.40;;;17.30;99.90;;;;;;5012666;28;20137;-85
2022/09/16 00:05:41;;;;;;;24.92;3.30;;;17.30;99.90;;;;;;5010697;28;20057;-84
2022/09/16 00:08:09;;;;;;;8.57;2.40;;;17.30;99.90;;;;;;5010055;28;20050;-83
2022/09/16 00:10:35;;;;;;;4.43;2.80;;;17.30;99.90;;;;;;5003301;28;20057;-84
2022/09/16 00:13:03;;;;;;;7.45;2.60;;;17.30;99.90;;;;;;4999683;28;20053;-83
2022/09/16 00:15:30;;;;;;;8.07;2.65;;;17.30;99.90;;;;;;5010161;28;20049;-83
2022/09/16 00:17:56;;;;;;;14.70;3.67;;;17.30;99.90;;;;;;5014293;28;20058;-84
2022/09/16 00:20:23;;;;;;;7.03;2.63;;;17.20;99.90;;;;;;5005355;28;20062;-83
2022/09/16 00:22:49;;;;;;;6.50;2.97;;;17.20;99.90;;;;;;5014123;28;20484;-84
2022/09/16 00:25:16;;;;;;;4.93;2.78;;;17.20;99.90;;;;;;5003016;28;20046;-84
2022/09/16 00:27:43;;;;;;;9.68;2.53;;;17.20;99.90;;;;;;5007745;28;20054;-86
2022/09/16 00:30:10;;;;;;;6.45;2.53;;;17.10;99.90;;;;;;5014920;28;20101;-84
2022/09/16 00:32:36;;;;;;;6.00;2.65;;;17.10;99.90;;;;;;5006636;28;20066;-84
2022/09/16 00:35:03;;;;;;;8.18;2.85;;;17.10;99.90;;;;;;5012833;28;20054;-84
2022/09/16 00:37:33;;;;;;;7.10;2.95;;;17.10;99.90;;;;;;5023833;28;20053;-84
2022/09/16 00:40:00;;;;;;;4.45;2.72;;;17.10;99.90;;;;;;5013163;28;20050;-83
2022/09/16 00:42:27;;;;;;;4.63;2.70;;;17.10;99.90;;;;;;5008606;28;20058;-82
2022/09/16 00:45:04;;;;;;;6.35;2.83;;;17.10;99.90;;;;;;5011214;28;20058;-82
2022/09/16 00:47:40;;;;;;;4.88;2.35;;;17.10;99.90;;;;;;5001637;28;20504;-83
2022/09/16 00:50:30;;;;;;;7.18;2.90;;;17.20;99.90;;;;;;4995693;28;20046;-82
2022/09/16 00:52:58;;;;;;;4.60;2.80;;;17.10;99.90;;;;;;4995727;28;20429;-82
2022/09/16 00:55:29;;;;;;;10.07;3.47;;;17.10;99.90;;;;;;5004315;28;20054;-83
2022/09/16 00:58:01;;;;;;;6.00;2.65;;;17.10;99.90;;;;;;5021443;28;20046;-87
2022/09/16 01:00:27;;;;;;;4.60;2.78;;;17.10;99.90;;;;;;5022959;28;20054;-86
2022/09/16 01:02:54;;;;;;;7.13;3.33;;;17.10;99.90;;;;;;5027866;28;20030;-85
2022/09/16 01:05:24;;;;;;;8.70;3.30;;;17.10;99.90;;;;;;5027067;28;20061;-87
2022/09/16 01:07:53;;;;;;;9.23;3.40;;;17.10;99.90;;;;;;5029407;28;20026;-86
2022/09/16 01:10:22;;;;;;;5.35;2.90;;;17.10;99.90;;;;;;5026620;28;20062;-82
2022/09/16 01:12:53;;;;;;;4.78;2.90;;;17.10;99.90;;;;;;5031916;28;20050;-84
2022/09/16 01:15:25;;;;;;;6.63;3.30;;;17.10;99.90;;;;;;5010973;28;20050;-83
2022/09/16 01:18:08;;;;;;;6.50;2.88;;;17.00;99.90;;;;;;5010457;28;20057;-84
2022/09/16 01:21:10;;;;;;;4.93;3.25;;;17.00;99.90;;;;;;5008012;28;20484;-83
2022/09/16 01:23:39;;;;;;;6.63;3.10;;;17.00;99.90;;;;;;5010183;28;20069;-83
2022/09/16 01:26:46;;;;;;;5.97;3.40;;;17.00;99.90;;;;;;5008256;28;20046;-84
2022/09/16 01:29:33;;;;;;;9.00;2.70;;;17.10;99.90;;;;;;5005836;28;20050;-83
2022/09/16 01:32:08;;;;;;;4.57;2.80;;;17.00;99.90;;;;;;4998513;28;20047;-85
2022/09/16 01:35:01;;;;;;;9.45;3.03;;;17.10;99.90;;;;;;5004857;28;20065;-83
2022/09/16 01:37:41;;;;;;;5.13;2.97;;;17.00;99.90;;;;;;5000225;28;20062;-82
2022/09/16 01:40:23;;;;;;;8.60;3.35;;;16.90;99.90;;;;;;5001480;28;20066;-82
2022/09/16 01:42:56;;;;;;;6.80;3.20;;;16.90;99.90;;;;;;5002620;28;20416;-83
2022/09/16 01:45:28;;;;;;;5.70;4.03;;;16.90;99.90;;;;;;5007211;28;20042;-84
2022/09/16 01:48:23;;;;;;;7.82;3.47;;;16.90;99.90;;;;;;5009511;28;20055;-84
2022/09/16 01:51:03;;;;;;;7.40;3.28;;;16.90;99.90;;;;;;5016936;28;20043;-84
2022/09/16 01:53:33;;;;;;;4.85;3.10;;;16.90;99.90;;;;;;5003450;28;20105;-83
2022/09/16 01:56:17;;;;;;;;;;;16.80;99.90;;;;;;4997730;28;20061;-84
2022/09/16 01:59:12;;;;;;;8.90;3.40;;;16.90;99.90;;;;;;4997752;28;20376;-83
2022/09/16 02:01:46;;;;;;;5.30;3.20;;;16.80;99.90;;;;;;5013507;28;20062;-82
2022/09/16 02:04:22;;;;;;;4.68;2.88;;;16.80;99.90;;;;;;4999926;28;20055;-84
2022/09/16 02:06:52;;;;;;;8.32;3.55;;;16.90;99.90;;;;;;5000773;28;20447;-84
2022/09/16 02:09:24;;;;;;;8.63;3.10;;;16.90;99.90;;;;;;5003082;28;20047;-83
2022/09/16 02:11:56;;;;;;;4.35;3.00;;;16.90;99.90;;;;;;4998613;28;20050;-82
2022/09/16 02:14:28;;;;;;;5.07;3.22;;;16.90;99.90;;;;;;5009334;28;20056;-84
2022/09/16 02:17:03;;;;;;;5.15;2.90;;;16.90;99.90;;;;;;5009090;28;20431;-85
2022/09/16 02:19:43;;;;;;;5.97;3.10;;;16.90;99.90;;;;;;4999910;28;20061;-83
2022/09/16 02:22:17;;;;;;;7.53;3.53;;;16.90;99.90;;;;;;5007642;28;20045;-85
2022/09/16 02:24:46;;;;;;;10.48;2.83;;;17.00;99.90;;;;;;5001057;28;20177;-84
2022/09/16 02:27:20;;;;;;;7.40;3.27;;;16.90;99.90;;;;;;5008733;28;20045;-84
2022/09/16 02:29:52;;;;;;;7.22;2.83;;;17.00;99.90;;;;;;5006681;28;20282;-82
2022/09/16 02:32:22;;;;;;;5.82;3.35;;;16.90;99.90;;;;;;5002576;28;20626;-84
2022/09/16 02:34:49;;;;;;;;;;;16.90;99.90;;;;;;5013446;28;20062;-83
2022/09/16 02:37:22;;;;;;;6.32;3.15;;;16.90;99.90;;;;;;5021225;28;19922;-84
2022/09/16 02:39:53;;;;;;;7.50;3.35;;;16.90;99.90;;;;;;5014946;28;20066;-84
2022/09/16 02:42:20;;;;;;;5.53;3.25;;;16.90;99.90;;;;;;5009964;28;20088;-84
2022/09/16 02:44:47;;;;;;;5.80;3.10;;;16.90;99.90;;;;;;5011310;28;20047;-83
2022/09/16 02:47:51;;;;;;;6.88;3.22;;;17.00;99.90;;;;;;5006686;28;20042;-83
2022/09/16 02:50:42;;;;;;;7.45;3.03;;;16.90;99.90;;;;;;5004696;28;20115;-84
2022/09/16 02:53:20;;;;;;;5.80;3.50;;;17.00;99.90;;;;;;5002276;28;20054;-83
2022/09/16 02:55:55;;;;;;;9.35;3.08;;;17.00;99.90;;;;;;5020359;28;20054;-83
2022/09/16 02:58:22;;;;;;;5.70;2.90;;;17.00;99.90;;;;;;5015536;28;20050;-84
2022/09/16 03:00:53;;;;;;;7.45;2.97;;;17.00;99.90;;;;;;5010797;28;20058;-84
2022/09/16 03:03:20;;;;;;;6.93;2.78;;;17.00;99.90;;;;;;5012137;28;20069;-84
2022/09/16 03:06:06;;;;;;;8.45;3.47;;;17.00;99.90;;;;;;5007495;28;20137;-83
2022/09/16 03:08:34;;;;;;;5.82;3.53;;;17.00;99.90;;;;;;5008032;28;20056;-82
2022/09/16 03:11:22;;;;;;;4.50;3.28;;;17.00;99.90;;;;;;4999249;28;20054;-82
2022/09/16 03:14:09;;;;;;;6.35;3.90;;;17.00;99.90;;;;;;5003036;28;20050;-83
2022/09/16 03:16:51;;;;;;;5.95;3.97;;;17.00;99.90;;;;;;5006626;28;20061;-83
2022/09/16 03:19:24;;;;;;;8.38;4.53;;;17.00;99.90;;;;;;5000048;28;20050;-83
2022/09/16 03:21:54;;;;;;;8.48;4.20;;;16.90;99.90;;;;;;5005339;28;20065;-83
2022/09/16 03:24:53;;;;;;;6.15;4.00;;;16.90;99.90;;;;;;5010904;28;20046;-84
2022/09/16 03:27:30;;;;;;;7.25;4.72;;;16.90;99.90;;;;;;5003491;28;20058;-85
2022/09/16 03:30:09;;;;;;;6.07;4.18;;;16.90;99.90;;;;;;5011299;28;20050;-83
2022/09/16 03:32:50;;;;;;;9.10;5.20;;;16.90;99.90;;;;;;5008046;28;20050;-83
2022/09/16 03:35:20;;;;;;;8.70;4.47;;;16.90;99.90;;;;;;5005961;28;20068;-84
2022/09/16 03:37:48;;;;;;;7.88;4.50;;;16.80;99.90;;;;;;4998557;28;20536;-86
2022/09/16 03:40:18;;;;;;;9.35;4.68;;;16.80;99.90;;;;;;4999127;28;20054;-85
2022/09/16 03:42:44;;;;;;;11.25;5.93;;;16.80;99.90;;;;;;5003369;28;20049;-83
2022/09/16 03:45:19;;;;;;;5.90;4.90;;;16.80;99.90;;;;;;5013829;28;20047;-85
2022/09/16 03:47:48;;;;;;;6.53;5.25;;;16.80;99.90;;;;;;5004016;28;20047;-85
2022/09/16 03:50:15;;;;;;;11.35;5.47;;;16.80;99.90;;;;;;5011221;28;20061;-84
2022/09/16 03:52:42;;;;;;;7.68;5.25;;;16.80;99.90;;;;;;5012939;28;20062;-85
2022/09/16 03:55:12;;;;;;;10.20;4.60;;;16.80;99.90;;;;;;5007580;28;20598;-83
2022/09/16 03:57:39;;;;;;;6.63;4.95;;;16.80;99.90;;;;;;5017004;28;20058;-84
2022/09/16 04:00:07;;;;;;;7.53;5.10;;;16.80;99.90;;;;;;5014970;28;20057;-84
2022/09/16 04:02:34;;;;;;;7.75;5.45;;;16.80;99.90;;;;;;5006521;28;20053;-84
2022/09/16 04:05:01;;;;;;;6.68;5.13;;;16.80;99.90;;;;;;5004451;28;20046;-84
2022/09/16 04:07:28;;;;;;;6.57;4.45;;;16.80;99.90;;;;;;5012034;28;20046;-85
2022/09/16 04:09:54;;;;;;;8.43;4.75;;;16.80;99.90;;;;;;5005767;28;20057;-85
2022/09/16 04:12:21;;;;;;;5.88;4.70;;;16.70;99.90;;;;;;5006603;28;20057;-85
2022/09/16 04:14:49;;;;;;;9.32;5.00;;;16.70;99.90;;;;;;5010272;28;20054;-84
2022/09/16 04:17:16;;;;;;;10.48;4.60;;;16.70;99.90;;;;;;5012788;28;20419;-84
2022/09/16 04:19:43;;;;;;;5.60;4.00;;;16.70;99.90;;;;;;5008388;28;20060;-84
2022/09/16 04:22:09;;;;;;;7.50;5.20;;;16.80;99.90;;;;;;5005113;28;20440;-84
2022/09/16 04:24:36;;;;;;;6.40;4.97;;;16.80;99.90;;;;;;5015678;28;20068;-85
2022/09/16 04:27:03;;;;;;;5.13;4.18;;;16.80;99.90;;;;;;5002689;28;20046;-85
2022/09/16 04:29:31;;;;;;;5.70;4.28;;;16.80;99.90;;;;;;5007586;28;20054;-83
2022/09/16 04:31:57;;;;;;;13.68;4.65;;;16.80;99.90;;;;;;5005330;28;20046;-83
2022/09/16 04:34:24;;;;;;;5.78;4.22;;;16.80;99.90;;;;;;5012506;28;20042;-84
2022/09/16 04:36:51;;;;;;;7.35;4.75;;;16.80;99.90;;;;;;5011087;28;20057;-83
2022/09/16 04:39:18;;;;;;;9.55;4.25;;;16.80;99.90;;;;;;5010364;28;20053;-83
2022/09/16 04:41:45;;;;;;;7.50;3.75;;;16.80;99.90;;;;;;5006681;28;20046;-84
2022/09/16 04:44:11;;;;;;;8.48;4.10;;;16.80;99.90;;;;;;5015706;28;20046;-84
2022/09/16 04:46:38;;;;;;;5.70;3.80;;;16.80;99.90;;;;;;5014099;28;20120;-82
2022/09/16 04:49:05;;;;;;;4.82;3.33;;;16.80;99.90;;;;;;5014780;28;20082;-82
2022/09/16 04:51:33;;;;;;;8.30;3.55;;;16.80;99.90;;;;;;5013431;28;20058;-84
2022/09/16 04:54:00;;;;;;;4.60;3.40;;;16.80;99.90;;;;;;5002414;28;22314;-82
2022/09/16 04:56:30;;;;;;;4.53;3.28;;;16.80;99.90;;;;;;5014653;28;20053;-83
2022/09/16 04:59:01;;;;;;;7.78;3.50;;;16.80;99.90;;;;;;5014912;28;20062;-83
2022/09/16 05:01:31;;;;;;;6.60;3.83;;;16.80;99.90;;;;;;5008972;28;20061;-82
2022/09/16 05:04:01;;;;;;;4.38;3.25;;;16.80;99.90;;;;;;5012178;28;20164;-84
2022/09/16 05:06:33;;;;;;;7.93;4.53;;;16.80;99.90;;;;;;5012250;28;20550;-82
2022/09/16 05:09:00;;;;;;;7.20;3.65;;;16.80;99.90;;;;;;5008251;28;20587;-83
2022/09/16 05:11:30;;;;;;;9.00;3.55;;;16.80;99.90;;;;;;5005896;28;20042;-83
2022/09/16 05:14:05;;;;;;;6.28;3.40;;;16.80;99.90;;;;;;5004797;28;20058;-83
2022/09/16 05:16:32;;;;;;;7.60;3.47;;;16.80;99.90;;;;;;5007067;28;20061;-83
2022/09/16 05:19:03;;;;;;;4.10;3.20;;;16.90;99.90;;;;;;5003210;28;20089;-83
2022/09/16 05:21:33;;;;;;;9.48;3.50;;;16.90;99.90;;;;;;5006681;28;20046;-82
2022/09/16 05:24:02;;;;;;;5.88;3.65;;;16.90;99.90;;;;;;5007910;28;20049;-81
2022/09/16 05:26:30;;;;;;;4.93;3.75;;;17.00;99.90;;;;;;5005436;28;20058;-82
2022/09/16 05:29:03;;;;;;;9.35;3.35;;;17.00;99.90;;;;;;5009027;28;20059;-84
2022/09/16 05:31:33;;;;;;;11.95;3.72;;;16.90;99.90;;;;;;5005373;28;20039;-83
2022/09/16 05:34:01;;;;;;;6.22;3.65;;;16.90;99.90;;;;;;5003285;28;20047;-84
2022/09/16 05:36:30;;;;;;;5.97;3.70;;;16.90;99.90;;;;;;5001999;28;20048;-83
2022/09/16 05:38:57;;;;;;;7.03;3.55;;;16.90;99.90;;;;;;5008075;28;20092;-84
2022/09/16 05:41:45;;;;;;;14.38;4.55;;;16.90;99.90;;;;;;4999859;28;20054;-84
2022/09/16 05:44:12;;;;;;;6.68;3.58;;;16.80;99.90;;;;;;5000153;28;20061;-84
2022/09/16 05:46:42;;;;;;;5.28;4.25;;;16.90;99.90;;;;;;5005664;28;20065;-83
2022/09/16 05:49:10;;;;;;;9.88;4.35;;;16.90;99.90;;;;;;5006258;28;20078;-84
2022/09/16 05:51:38;;;;;;;4.55;3.45;;;16.90;99.90;;;;;;5006579;28;20038;-85
2022/09/16 05:54:05;;;;;;;4.35;3.45;;;16.90;99.90;;;;;;5000417;28;20393;-84
2022/09/16 05:56:32;;;;;;;8.27;3.38;;;16.90;99.90;;;;;;5007572;28;20651;-83
2022/09/16 05:59:00;;;;;;;8.52;3.65;;;16.90;99.90;;;;;;5007054;28;20050;-84
2022/09/16 06:01:30;;;;;;;6.57;3.30;;;16.90;99.90;;;;;;5024294;28;20069;-83
2022/09/16 06:03:58;;;;;;;8.82;4.22;;;16.90;99.90;;;;;;5017528;28;20057;-85
2022/09/16 06:06:27;;;;;;;7.30;3.97;;;16.90;99.90;;;;;;5017620;28;20411;-84
2022/09/16 06:08:56;;;;;;;8.60;3.60;;;16.90;99.90;;;;;;5014503;28;20042;-83
2022/09/16 06:11:24;;;;;;;5.47;3.33;;;16.90;99.90;;;;;;5014136;28;20050;-84
2022/09/16 06:13:54;;;;;;;7.25;3.58;;;16.90;99.90;;;;;;5012027;28;20056;-83
2022/09/16 06:16:22;;;;;;;6.95;4.22;;;16.90;99.90;;;;;;5018053;28;20675;-83
2022/09/16 06:18:48;;;;;;;9.60;3.60;;;16.90;99.90;;;;;;5011367;28;20065;-84
2022/09/16 06:21:15;;;;;;;7.22;3.38;;;16.90;99.90;;;;;;5009250;28;20054;-84
2022/09/16 06:23:42;;;;;;;6.07;3.55;;;16.90;99.90;;;;;;5000570;28;20142;-83
2022/09/16 06:26:15;;;;;;;6.80;3.33;;;17.00;99.90;;;;;;4998508;28;20074;-84
2022/09/16 06:28:43;;;;;;;6.95;3.80;;;17.00;99.90;;;;;;5008795;28;20072;-86
2022/09/16 06:31:12;;;;;;;5.28;3.00;;;17.00;99.90;;;;;;5019017;28;20050;-84
2022/09/16 06:33:39;;;;;;;6.93;3.63;;;16.90;99.90;;;;;;5013699;28;20057;-84
2022/09/16 06:36:09;;;;;;;5.78;3.90;;;16.90;99.90;;;;;;5017141;28;20065;-84
2022/09/16 06:38:36;;;;;;;11.02;3.40;;;17.00;99.90;;;;;;5030426;28;20393;-84
2022/09/16 06:41:05;;;;;;;6.65;4.18;;;16.90;99.90;;;;;;5017776;28;20046;-87
2022/09/16 06:43:33;;;;;;;4.55;4.10;;;17.00;99.90;;;;;;5018676;28;20378;-84
2022/09/16 06:46:08;;;;;;;12.20;4.10;;;16.90;99.90;;;;;;5020183;28;20052;-85
2022/09/16 06:48:35;;;;;;;4.22;3.80;;;17.00;99.90;;;;;;5019496;28;20073;-86
2022/09/16 06:51:05;;;;;;;6.43;3.67;;;17.00;99.90;;;;;;5019593;28;20057;-86
2022/09/16 06:53:32;;;;;;;5.95;3.78;;;17.00;99.90;;;;;;5022225;28;20050;-87
2022/09/16 06:56:00;;;;;;;5.78;3.50;;;17.00;99.90;;;;;;5021241;28;20064;-85
2022/09/16 06:58:30;;;;;;;9.02;4.03;;;17.10;99.90;;;;;;5020124;28;20058;-85
2022/09/16 07:00:57;;;;;;;6.35;3.58;;;17.00;99.90;;;;;;5020299;28;20058;-85
2022/09/16 07:03:24;;;;;;;8.25;3.75;;;17.00;99.90;;;;;;5018921;28;20104;-85
2022/09/16 07:06:00;;;;;;;5.50;3.30;;;17.00;99.90;;;;;;5015263;28;20053;-84
2022/09/16 07:08:28;;;;;;;6.40;3.83;;;17.00;99.90;;;;;;5016363;28;20056;-85
2022/09/16 07:11:00;;;;;;;6.20;3.50;;;17.10;99.90;;;;;;5015513;28;20045;-86
2022/09/16 07:13:27;;;;;;;7.35;3.38;;;17.10;99.90;;;;;;5009861;28;20070;-82
2022/09/16 07:15:54;;;;;;;6.05;3.70;;;17.10;99.90;;;;;;5009600;28;20077;-85
2022/09/16 07:18:38;;;;;;;9.82;5.97;;;17.10;99.90;;;;;;5007640;28;20684;-85
2022/09/16 07:21:12;;;;;;;6.40;3.72;;;17.10;99.90;;;;;;5015500;28;20050;-85
2022/09/16 07:23:40;;;;;;;6.45;3.63;;;17.20;99.90;;;;;;5009545;28;20065;-84
2022/09/16 07:26:10;;;;;;;6.03;3.78;;;17.20;99.90;;;;;;5010629;28;20077;-84
2022/09/16 07:28:37;;;;;;;;;;;17.20;99.90;;;;;;5010559;28;20050;-85
2022/09/16 07:31:09;;;;;;;8.65;4.45;;;17.20;99.90;;;;;;5008205;28;19925;-84
2022/09/16 07:33:38;;;;;;;7.78;3.60;;;17.20;99.90;;;;;;5007444;28;20082;-84
2022/09/16 07:36:07;;;;;;;5.40;3.53;;;17.20;99.90;;;;;;5006736;28;20050;-84
2022/09/16 07:38:34;;;;;;;6.82;4.00;;;17.20;99.90;;;;;;5015565;28;20058;-84
2022/09/16 07:41:06;;;;;;;7.15;4.28;;;17.20;99.90;;;;;;5005418;28;20053;-82
2022/09/16 07:43:34;;;;;;;6.32;3.90;;;17.20;99.90;;;;;;4999543;28;20046;-83
2022/09/16 07:46:00;;;;;;;8.50;3.85;;;17.20;99.90;;;;;;4999577;28;20061;-83
2022/09/16 07:48:31;;;;;;;4.63;3.72;;;17.20;99.90;;;;;;5011090;28;20046;-83
2022/09/16 07:51:04;;;;;;;7.70;4.10;;;17.20;99.90;;;;;;5017518;28;20396;-82
2022/09/16 07:53:31;;;;;;;8.50;4.03;;;17.20;99.90;;;;;;5018322;28;20071;-84
2022/09/16 07:56:24;;;;;;;8.48;4.05;;;17.30;99.90;;;;;;5007329;28;20412;-83
2022/09/16 07:58:53;;;;;;;7.03;4.05;;;17.30;99.90;;;;;;5000829;28;20140;-83
2022/09/16 08:01:20;;;;;;;6.38;4.03;;;17.40;99.90;;;;;;5016345;28;20462;-83
2022/09/16 08:03:47;;;;;;;5.65;3.83;;;17.50;99.90;;;;;;5015361;28;20050;-83
2022/09/16 08:06:17;;;;;;;6.10;4.00;;;17.50;99.90;;;;;;5017366;28;20050;-83
2022/09/16 08:08:44;;;;;;;8.45;4.28;;;17.60;99.90;;;;;;5016859;28;20105;-83
2022/09/16 08:11:13;;;;;;;12.55;4.15;;;17.60;99.90;;;;;;5016089;28;20085;-83
2022/09/16 08:13:41;;;;;;;5.28;3.33;;;17.70;99.90;;;;;;4999303;28;20058;-84
2022/09/16 08:16:11;;;;;;;8.10;3.60;;;17.70;99.90;;;;;;5009145;28;20046;-84
2022/09/16 08:18:38;;;;;;;8.15;3.92;;;17.90;99.90;;;;;;5002327;28;20050;-84
2022/09/16 08:21:11;;;;;;;8.60;4.38;;;17.90;99.90;;;;;;5006134;28;20074;-84
2022/09/16 08:23:38;;;;;;;6.35;3.95;;;18.00;99.90;;;;;;5007967;28;20057;-84
2022/09/16 08:26:07;;;;;;;7.22;4.13;;;18.10;99.90;;;;;;5016510;28;20062;-83
2022/09/16 08:28:34;;;;;;;5.97;4.00;;;18.20;99.90;;;;;;5006558;28;20086;-83
2022/09/16 08:31:20;;;;;;;7.22;5.15;;;18.30;99.90;;;;;;5010993;28;20049;-84
2022/09/16 08:33:47;;;;;;;7.85;5.15;;;18.30;99.90;;;;;;5009215;28;20050;-83
2022/09/16 08:36:15;;;;;;;9.38;5.35;;;18.30;99.90;;;;;;5000284;28;20050;-83
2022/09/16 08:38:43;;;;;;;9.05;5.45;;;18.30;99.90;;;;;;5008514;28;20055;-83
2022/09/16 08:41:38;;;;;;;5.72;5.00;;;18.20;99.90;;;;;;5001396;28;20054;-83
2022/09/16 08:44:42;;;;;;;7.15;5.03;;;17.80;99.90;;;;;;4999965;28;20051;-84
2022/09/16 08:47:27;;;;;;;6.85;4.43;;;17.80;99.90;;;;;;4989756;28;20053;-82
2022/09/16 08:49:57;;;;;;;7.70;4.15;;;17.70;99.90;;;;;;5004950;28;20106;-83
2022/09/16 08:52:33;;;;;;;10.45;4.25;;;17.70;99.90;;;;;;5003657;28;20069;-84
2022/09/16 08:55:23;;;;;;;6.78;4.25;;;17.70;99.90;;;;;;5003567;28;20054;-85
2022/09/16 08:58:08;;;;;;;8.18;5.00;;;17.60;99.90;;;;;;5001750;28;20054;-83
2022/09/16 09:00:36;;;;;;;10.77;6.15;;;17.60;99.90;;;;;;5001460;28;20060;-83
2022/09/16 09:03:12;;;;;;;9.20;6.43;;;17.50;99.90;;;;;;5001358;28;20110;-83
2022/09/16 09:05:56;;;;;;;15.98;8.50;;;17.30;99.90;;;;;;5000739;28;20503;-82
2022/09/16 09:08:31;;;;;;;7.95;6.07;;;17.30;99.90;;;;;;5014456;28;20060;-85
2022/09/16 09:11:31;;;;;;;9.80;6.13;;;17.20;99.90;;;;;;5016688;28;20609;-82
2022/09/16 09:14:28;;;;;;;8.32;5.32;;;16.80;99.90;;;;;;5013651;28;20049;-84
2022/09/16 09:17:05;;;;;;;4.88;4.38;;;16.50;99.90;;;;;;5010978;28;20046;-83
2022/09/16 09:20:09;;;;;;;5.63;4.50;;;16.30;99.90;;;;;;5010161;28;20052;-82
2022/09/16 09:23:07;;;;;;;6.32;4.97;;;16.10;99.90;;;;;;5010207;28;20072;-84
2022/09/16 09:26:00;;;;;;;5.53;4.35;;;16.00;99.90;;;;;;5008443;28;20042;-85
2022/09/16 09:28:43;;;;;;;6.68;4.00;;;16.10;99.90;;;;;;5021156;28;20101;-84
2022/09/16 09:31:44;;;;;;;4.93;3.50;;;16.10;99.90;;;;;;5024330;28;20060;-83
2022/09/16 09:34:49;;;;;;;3.33;2.70;;;16.10;99.90;;;;;;5034814;28;20062;-84
2022/09/16 09:37:41;;;;;;;2.95;2.50;;;16.00;99.90;;;;;;5024439;28;20057;-81
2022/09/16 09:40:34;;;;;;;2.92;2.45;;;15.90;99.90;;;;;;5023217;28;20150;-84
2022/09/16 09:43:06;;;;;;;4.05;2.30;;;15.90;99.90;;;;;;5022893;28;20068;-81
2022/09/16 09:45:41;;;;;;;2.42;2.10;;;15.90;99.90;;;;;;5021814;28;20053;-84
2022/09/16 09:48:14;;;;;;;2.17;1.98;;;15.90;99.90;;;;;;5030272;28;20043;-82
2022/09/16 09:50:43;;;;;;;2.20;2.00;;;16.00;99.90;;;;;;5020474;28;20128;-84
2022/09/16 09:53:10;;;;;;;2.20;2.00;;;16.10;99.90;;;;;;5011503;28;20065;-86
2022/09/16 09:55:39;;;;;;;1.52;1.40;;;16.20;99.90;;;;;;5011301;28;20041;-84
2022/09/16 09:58:31;;;;;;;1.38;1.17;;;16.30;99.90;;;;;;5018166;28;20054;-84
2022/09/16 10:00:57;;;;;;;2.22;1.42;;;16.20;99.90;;;;;;5006817;28;20074;-84
2022/09/16 10:03:26;;;;;;;1.85;1.40;;;16.30;99.90;;;;;;5005092;28;20435;-84
2022/09/16 10:05:53;;;;;;;1.23;1.13;;;16.30;99.90;;;;;;5003257;28;20056;-85
2022/09/16 10:08:25;;;;;;;1.85;1.20;;;16.40;99.90;;;;;;5003718;28;20053;-84
2022/09/16 10:11:13;;;;;;;1.65;1.20;;;16.50;99.90;;;;;;5002697;28;20056;-84
2022/09/16 10:14:04;;;;;;;1.70;1.10;;;16.50;99.90;;;;;;5005526;28;20042;-84
2022/09/16 10:16:36;;;;;;;1.33;1.00;;;16.60;99.90;;;;;;5015213;28;20507;-84
2022/09/16 10:19:19;;;;;;;2.08;1.17;;;16.60;99.90;;;;;;5018879;28;20049;-86
2022/09/16 10:21:50;;;;;;;3.28;1.02;;;16.60;99.90;;;;;;5019181;28;20053;-85
2022/09/16 10:24:33;;;;;;;1.75;1.10;;;16.60;99.90;;;;;;5005371;28;20057;-84
2022/09/16 10:27:18;;;;;;;1.95;1.08;;;16.60;99.90;;;;;;5015127;28;20069;-86
2022/09/16 10:29:44;;;;;;;2.30;1.30;;;16.70;99.90;;;;;;5018666;28;20046;-85
2022/09/16 10:32:17;;;;;;;4.47;1.02;;;16.70;99.90;;;;;;5014009;28;20053;-85
2022/09/16 10:34:44;;;;;;;2.83;1.10;;;16.70;99.90;;;;;;5014149;28;20053;-84
2022/09/16 10:37:11;;;;;;;2.40;1.25;;;16.70;99.90;;;;;;5012696;28;20049;-84
2022/09/16 10:39:43;;;;;;;2.90;1.10;;;16.80;99.90;;;;;;5013541;28;20054;-85
2022/09/16 10:42:28;;;;;;;2.35;1.23;;;16.90;99.90;;;;;;5012160;28;20102;-84
2022/09/16 10:45:02;;;;;;;6.20;1.67;;;17.00;99.90;;;;;;5009423;28;20050;-84
2022/09/16 10:47:32;;;;;;;5.05;1.00;;;17.20;99.90;;;;;;5011675;28;20054;-84
2022/09/16 10:50:03;;;;;;;3.67;1.20;;;17.20;99.90;;;;;;5016039;28;20054;-85
2022/09/16 10:52:40;;;;;;;1.90;0.95;;;17.20;99.90;;;;;;5009840;28;20499;-87
2022/09/16 10:55:24;;;;;;;3.45;1.00;;;17.20;99.90;;;;;;5016969;28;20050;-85
2022/09/16 10:57:51;;;;;;;2.92;1.10;;;17.30;99.90;;;;;;5007797;28;20069;-87
2022/09/16 11:00:24;;;;;;;3.13;1.33;;;17.40;99.90;;;;;;5005218;28;20065;-84
2022/09/16 11:03:05;;;;;;;2.03;0.90;;;17.50;99.90;;;;;;4998995;28;20156;-84
2022/09/16 11:05:49;;;;;;;2.50;0.80;;;17.60;99.90;;;;;;5015769;28;20230;-84
2022/09/16 11:08:41;;;;;;;3.50;1.48;;;17.70;99.90;;;;;;5018896;28;20041;-85
2022/09/16 11:11:39;;;;;;;2.67;1.20;;;17.70;99.90;;;;;;5018296;28;20042;-84
2022/09/16 11:14:53;;;;;;;2.88;1.10;;;17.70;99.90;;;;;;5019148;28;20050;-84
2022/09/16 11:17:33;;;;;;;2.20;1.30;;;17.70;99.90;;;;;;5019438;28;20170;-85
2022/09/16 11:20:19;;;;;;;;;;;17.60;99.90;;;;;;5019514;28;20057;-81
2022/09/16 11:22:56;;;;;;;2.47;1.25;;;17.70;99.90;;;;;;5013261;28;20304;-84
2022/09/16 11:26:01;;;;;;;5.18;1.52;;;17.70;99.90;;;;;;5005133;28;20056;-86
2022/09/16 11:28:49;;;;;;;2.22;1.33;;;17.60;99.90;;;;;;4976238;28;20046;-85
2022/09/16 11:31:27;;;;;;;1.95;1.20;;;17.60;99.90;;;;;;5008633;28;20042;-85
2022/09/16 11:34:09;;;;;;;4.20;1.92;;;17.50;99.90;;;;;;5012507;28;20048;-82
2022/09/16 11:36:39;;;;;;;4.47;1.48;;;17.40;99.90;;;;;;5008652;28;20050;-85
2022/09/16 11:39:30;;;;;;;2.97;1.50;;;17.30;99.90;;;;;;5007825;28;20050;-84
2022/09/16 11:42:09;;;;;;;3.33;1.98;;;17.30;99.90;;;;;;5014182;28;20050;-85
2022/09/16 11:44:59;;;;;;;3.85;1.73;;;17.10;99.90;;;;;;5009821;28;20496;-83
2022/09/16 11:47:45;;;;;;;5.10;1.90;;;17.10;99.90;;;;;;5004671;28;20568;-83
2022/09/16 11:50:21;;;;;;;6.63;2.28;;;17.00;99.90;;;;;;5011262;28;20046;-85
2022/09/16 11:52:54;;;;;;;3.22;2.10;;;16.90;99.90;;;;;;5009257;28;20042;-84
2022/09/16 11:55:38;;;;;;;3.30;2.38;;;16.90;99.90;;;;;;5013696;28;20077;-85
2022/09/16 11:58:17;;;;;;;5.25;2.20;;;16.80;99.90;;;;;;5008700;28;20682;-85
2022/09/16 12:00:45;;;;;;;3.38;2.78;;;16.70;99.90;;;;;;5009784;28;20053;-84
2022/09/16 12:03:23;;;;;;;5.15;3.00;;;16.60;99.90;;;;;;5010415;28;20050;-86
2022/09/16 12:06:04;;;;;;;5.07;3.05;;;16.50;99.90;;;;;;5012568;28;20042;-84
2022/09/16 12:08:49;;;;;;;4.88;3.17;;;16.40;99.90;;;;;;5015828;28;20072;-83
2022/09/16 12:11:21;;;;;;;6.03;3.88;;;16.50;99.90;;;;;;5008558;28;20050;-84
2022/09/16 12:13:56;;;;;;;4.13;3.25;;;16.50;99.90;;;;;;5011663;28;20046;-83
2022/09/16 12:16:47;;;;;;;10.10;3.25;;;16.50;99.90;;;;;;5005904;28;20050;-83
2022/09/16 12:19:22;;;;;;;5.07;3.08;;;16.50;99.90;;;;;;5008608;28;20050;-83
2022/09/16 12:21:55;;;;;;;9.40;3.00;;;16.50;99.90;;;;;;5002959;28;20518;-83
2022/09/16 12:24:44;;;;;;;6.15;3.20;;;16.60;99.90;;;;;;5000380;28;20053;-86
2022/09/16 12:27:47;;;;;;;5.88;2.78;;;16.60;99.90;;;;;;5003982;28;20467;-83
2022/09/16 12:30:29;;;;;;;6.50;2.75;;;16.60;99.90;;;;;;5003797;28;20133;-85
2022/09/16 12:33:04;;;;;;;6.55;3.53;;;16.70;99.90;;;;;;5004965;28;20066;-85
2022/09/16 12:35:54;;;;;;;5.05;3.03;;;16.70;99.90;;;;;;5002199;28;20066;-85
2022/09/16 12:38:21;;;;;;;5.10;2.88;;;16.80;99.90;;;;;;5007211;28;20092;-83
2022/09/16 12:40:58;;;;;;;4.13;2.55;;;16.90;99.90;;;;;;5010640;28;20045;-83
2022/09/16 12:43:55;;;;;;;5.00;2.53;;;17.00;99.90;;;;;;5011053;28;20050;-86
2022/09/16 12:46:47;;;;;;;2.72;2.20;;;17.00;99.90;;;;;;5009941;28;20043;-83
2022/09/16 12:49:43;;;;;;;5.05;2.85;;;17.10;99.90;;;;;;5008127;28;20044;-84
2022/09/16 12:52:44;;;;;;;5.63;2.17;;;17.20;99.90;;;;;;5011842;28;20046;-84
2022/09/16 12:55:27;;;;;;;2.50;2.13;;;17.20;99.90;;;;;;5012737;28;20058;-84
2022/09/16 12:58:05;;;;;;;4.20;2.10;;;17.20;99.90;;;;;;5012786;28;20060;-85
2022/09/16 13:01:03;;;;;;;4.25;2.20;;;17.10;99.90;;;;;;5014220;28;20054;-83
2022/09/16 13:03:32;;;;;;;2.80;1.92;;;17.00;99.90;;;;;;5025267;28;20066;-84
2022/09/16 13:06:02;;;;;;;4.88;2.45;;;16.90;99.90;;;;;;5010549;28;20053;-84
2022/09/16 13:08:30;;;;;;;;;;;16.90;99.90;;;;;;5013634;28;20054;-84
2022/09/16 13:11:03;;;;;;;7.97;3.15;;;16.80;99.90;;;;;;5006903;28;19925;-85
2022/09/16 13:13:54;;;;;;;4.30;2.40;;;16.70;99.90;;;;;;5005037;28;20046;-85
2022/09/16 13:16:34;;;;;;;;;;;16.70;99.90;;;;;;5007462;28;20054;-84
2022/09/16 13:19:23;;;;;;;4.10;2.20;;;16.70;99.90;;;;;;5009645;28;19939;-85
2022/09/16 13:21:59;;;;;;;7.95;2.42;;;16.80;99.90;;;;;;5011283;28;20061;-84
2022/09/16 13:24:36;;;;;;;2.97;2.08;;;16.80;99.90;;;;;;5008234;28;20069;-85
2022/09/16 13:27:45;;;;;;;2.83;1.70;;;16.90;99.90;;;;;;5011986;28;20037;-84